WetterOnline ( https://www.wetteronline.de )

Wetter aktuell Öpfingen

Aktuelles Wetter: Ulm-Mähringen (592m)

6-stündlich | Neueste Meldungen
Ortszeit Temperatur Wetter
Sa, 19.10. 20:00 10.3° C bedeckt
Sa, 19.10. 14:00 11.9° C Sprühregen
Sa, 19.10. 8:00 9.6° C Sprühregen
Sa, 19.10. 2:00 10.4° C leichter Regen
Fr, 18.10. 20:00 11.3° C wolkig
Fr, 18.10. 14:00 15.2° C wolkig
Fr, 18.10. 8:00 9.8° C bewölkt
Fr, 18.10. 2:00 11.6° C bewölkt
Ortszeit Temperatur Wetter
Sa, 19.10. 20:00 10.3° C bedeckt
Sa, 19.10. 19:50 10.3° C bedeckt
Sa, 19.10. 19:40 10.0° C bedeckt
Sa, 19.10. 19:30 10.2° C bedeckt
Sa, 19.10. 19:20 10.2° C bedeckt
Sa, 19.10. 19:10 10.5° C bedeckt
Sa, 19.10. 19:00 10.6° C bedeckt
Sa, 19.10. 18:30 11.8° C bedeckt
Sa, 19.10. 18:00 12.1° C bewölkt
Sa, 19.10. 17:30 12.6° C wolkig
Sa, 19.10. 17:00 12.8° C bedeckt
Ortszeit Relative Feuchte Sichtweite
Sa, 19.10. 20:00 95% 29 km
Sa, 19.10. 14:00 92% 30 km
Sa, 19.10. 8:00 97% 5.0 km
Sa, 19.10. 2:00 96% 12 km
Fr, 18.10. 20:00 88% 60 km
Fr, 18.10. 14:00 75% 50 km
Fr, 18.10. 8:00 99% 3.5 km
Fr, 18.10. 2:00 89% 22 km
Ortszeit Relative Feuchte Sichtweite
Sa, 19.10. 20:00 95% 29 km
Sa, 19.10. 19:50 95% -
Sa, 19.10. 19:40 95% -
Sa, 19.10. 19:30 95% 17 km
Sa, 19.10. 19:20 95% -
Sa, 19.10. 19:10 95% -
Sa, 19.10. 19:00 94% 23 km
Sa, 19.10. 18:30 88% 45 km
Sa, 19.10. 18:00 85% 45 km
Sa, 19.10. 17:30 82% 70 km
Sa, 19.10. 17:00 86% 70 km
Ortszeit Niederschlagsmenge Niederschlagsart
Sa, 19.10. 20:00 6 l/m2 in 12 Std. Regen
Sa, 19.10. 14:00 6 l/m2 in 6 Std. Regen
Sa, 19.10. 8:00 3 l/m2 in 12 Std. Regen
Sa, 19.10. 2:00 1 l/m2 in 6 Std. Regen
Fr, 18.10. 20:00 0.1 l/m2 in 12 Std. Regen
Fr, 18.10. 14:00 0.0 l/m2 in 6 Std. -
Fr, 18.10. 8:00 0.2 l/m2 in 12 Std. -
Fr, 18.10. 2:00 0.2 l/m2 in 6 Std. Regen
Ortszeit Niederschlagsmenge Niederschlagsart
Sa, 19.10. 20:00 0.0 l/m2 in 1 Std. Regen
Sa, 19.10. 19:50 keine Meldung -
Sa, 19.10. 19:40 keine Meldung -
Sa, 19.10. 19:30 0.0 l/m2 in 1 Std. -
Sa, 19.10. 19:20 keine Meldung -
Sa, 19.10. 19:10 keine Meldung -
Sa, 19.10. 19:00 0.0 l/m2 in 1 Std. -
Sa, 19.10. 18:30 0.0 l/m2 in 1 Std. -
Sa, 19.10. 18:00 0.0 l/m2 in 1 Std. -
Sa, 19.10. 17:30 0.0 l/m2 in 1 Std. -
Sa, 19.10. 17:00 0.0 l/m2 in 1 Std. Regen
Ortszeit Stärke Spitze Richtung
km/h Bft. km/h Grad Sektor
Sa, 19.10. 20:00 6 1 24 60° NO
Sa, 19.10. 14:00 13 3 20 150° SO
Sa, 19.10. 8:00 6 1 19 290° W
Sa, 19.10. 2:00 9 2 17 180° S
Fr, 18.10. 20:00 7 2 43 210° SW
Fr, 18.10. 14:00 15 3 24 220° SW
Fr, 18.10. 8:00 0 0 22 - -
Fr, 18.10. 2:00 11 2 22 210° SW
Ortszeit Stärke Spitze Richtung
km/h Bft. km/h Grad Sektor
Sa, 19.10. 20:00 6 1 7 60° NO
Sa, 19.10. 19:50 6 1 - 60° NO
Sa, 19.10. 19:40 7 2 - 50° NO
Sa, 19.10. 19:30 7 2 7 40° NO
Sa, 19.10. 19:20 7 2 - 40° NO
Sa, 19.10. 19:10 7 2 - 60° NO
Sa, 19.10. 19:00 6 1 11 70° O
Sa, 19.10. 18:30 6 1 11 110° O
Sa, 19.10. 18:00 7 2 18 120° SO
Sa, 19.10. 17:30 13 3 19 140° SO
Sa, 19.10. 17:00 11 2 17 150° SO
Ortszeit Untergrenze Bedeckung Gattung
total tief tief mittel hoch
Sa, 19.10. 20:00 3300 m 8/8 8/8 - - -
Sa, 19.10. 14:00 1800 m 7/8 7/8 - - -
Sa, 19.10. 8:00 1800 m 8/8 8/8 - - -
Sa, 19.10. 2:00 60 m 8/8 8/8 - - -
Fr, 18.10. 20:00 7200 m 8/8 0/8 - - -
Fr, 18.10. 14:00 1800 m 8/8 1/8 - - -
Fr, 18.10. 8:00 120 m 8/8 7/8 - - -
Fr, 18.10. 2:00 2100 m 8/8 7/8 - - -
Ortszeit Bedeckungsgrad in Achtel und Wolkenuntergrenze
Sa, 19.10. 20:00 5(3300m) 7(4500m) 8(5400m)
Sa, 19.10. 19:50 5(3300m) 7(4500m) 8(5400m)
Sa, 19.10. 19:40 2(3300m) 8(5400m) 8(6000m)
Sa, 19.10. 19:30 6(4500m) 8(5400m) 8(7800m)
Sa, 19.10. 19:20 6(4500m) 8(5400m) 8(7800m)
Sa, 19.10. 19:10 1(3600m) 8(5400m) 8(7500m)
Sa, 19.10. 19:00 5(3300m) 8(5100m) 8(6900m)
Sa, 19.10. 18:30 4(3000m) 8(3600m) 8(4500m)
Sa, 19.10. 18:00 6(2700m) 8(3300m) 8(5100m)
Sa, 19.10. 17:30 1(2700m) 8(3600m) 8(4200m)
Sa, 19.10. 17:00 7(3300m) 8(3900m)
Ortszeit Luftdruck NN (hPa) Tendenz (hPa in 3 Std.)
Sa, 19.10. 20:00 1011 - 0,3
Sa, 19.10. 14:00 1012 - 0,7
Sa, 19.10. 8:00 1012 - 0,7
Sa, 19.10. 2:00 1014 - 0,2
Fr, 18.10. 20:00 1014 + 0,1
Fr, 18.10. 14:00 1012 - 1,0
Fr, 18.10. 8:00 1015 - 0,4
Fr, 18.10. 2:00 1016 - 0,6
Ortszeit Luftdruck NN (hPa) Tendenz (hPa in 3 Std.)
Sa, 19.10. 20:00 1011 - 0,3
Sa, 19.10. 19:50 1011 keine Meldung
Sa, 19.10. 19:40 1011 keine Meldung
Sa, 19.10. 19:30 1011 - 0,5
Sa, 19.10. 19:20 1011 keine Meldung
Sa, 19.10. 19:10 1011 keine Meldung
Sa, 19.10. 19:00 1011 - 0,6
Sa, 19.10. 18:30 1011 - 0,4
Sa, 19.10. 18:00 1011 - 1,0
Sa, 19.10. 17:30 1011 - 1,0
Sa, 19.10. 17:00 1011 - 1,1
Ortszeit Schneehöhe (cm)
Sa, 19.10. 20:00 0
Sa, 19.10. 14:00 0
Sa, 19.10. 8:00 0
Sa, 19.10. 2:00 0
Fr, 18.10. 20:00 0
Fr, 18.10. 14:00 0
Fr, 18.10. 8:00 0
Fr, 18.10. 2:00 0
Ortszeit Schneehöhe (cm)
Sa, 19.10. 20:00 0
Sa, 19.10. 19:50 0
Sa, 19.10. 19:40 0
Sa, 19.10. 19:30 0
Sa, 19.10. 19:20 0
Sa, 19.10. 19:10 0
Sa, 19.10. 19:00 0
Sa, 19.10. 18:30 0
Sa, 19.10. 18:00 0
Sa, 19.10. 17:30 0
Sa, 19.10. 17:00 0
Link zu dieser Seite / Seite empfehlen

Das Wetter in ...